createdAt,value
2017-10-21T00:01:51.399Z,7.20
2017-10-21T00:04:19.515Z,6.80
2017-10-21T00:06:47.684Z,6.70
2017-10-21T00:09:15.818Z,6.28
2017-10-21T00:11:43.951Z,7.50
2017-10-21T00:14:12.080Z,6.60
2017-10-21T00:16:41.014Z,7.17
2017-10-21T00:19:09.134Z,7.10
2017-10-21T00:21:38.056Z,7.30
2017-10-21T00:24:06.192Z,7.07
2017-10-21T00:26:35.094Z,6.93
2017-10-21T00:29:03.993Z,6.53
2017-10-21T00:31:32.938Z,7.20
2017-10-21T00:34:01.057Z,7.20
2017-10-21T00:36:29.971Z,7.30
2017-10-21T00:38:58.109Z,7.33
2017-10-21T00:41:27.014Z,6.70
2017-10-21T00:43:55.904Z,7.37
2017-10-21T00:46:24.119Z,6.53
2017-10-21T00:48:52.254Z,6.60
2017-10-21T00:51:21.141Z,7.43
2017-10-21T00:53:50.040Z,7.43
2017-10-21T00:56:18.173Z,6.87
2017-10-21T00:58:46.347Z,7.50
2017-10-21T01:01:14.493Z,6.73
2017-10-21T01:03:42.603Z,6.67
2017-10-21T01:06:11.647Z,6.77
2017-10-21T01:08:39.764Z,7.07
2017-10-21T01:11:07.903Z,7.90
2017-10-21T01:13:36.068Z,6.77
2017-10-21T01:16:04.209Z,7.10
2017-10-21T01:18:33.814Z,6.90
2017-10-21T01:21:02.002Z,7.03
2017-10-21T01:23:30.884Z,6.87
2017-10-21T01:25:59.021Z,6.90
2017-10-21T01:28:27.151Z,7.27
2017-10-21T01:30:55.335Z,7.00
2017-10-21T01:33:23.456Z,7.50
2017-10-21T01:35:52.348Z,6.97
2017-10-21T01:38:21.264Z,7.13
2017-10-21T01:40:49.397Z,7.60
2017-10-21T01:43:17.546Z,7.00
2017-10-21T01:45:45.669Z,7.10
2017-10-21T01:48:13.819Z,7.00
2017-10-21T01:50:42.751Z,7.03
2017-10-21T01:53:10.878Z,7.30
2017-10-21T01:55:39.790Z,7.30
2017-10-21T01:58:08.672Z,7.17
2017-10-21T02:00:37.695Z,7.73
2017-10-21T02:03:05.836Z,7.10
2017-10-21T02:05:35.029Z,7.20
2017-10-21T02:08:03.911Z,7.10
2017-10-21T02:10:32.816Z,7.60
2017-10-21T02:13:01.737Z,6.80
2017-10-21T02:15:29.857Z,7.10
2017-10-21T02:17:58.012Z,7.03
2017-10-21T02:20:26.948Z,8.37
2017-10-21T02:22:55.878Z,7.30
2017-10-21T02:25:24.035Z,8.07
2017-10-21T02:27:52.191Z,8.00
2017-10-21T02:30:20.338Z,7.80
2017-10-21T02:32:49.240Z,8.38
2017-10-21T02:35:18.155Z,7.90
2017-10-21T02:37:46.305Z,7.50
2017-10-21T02:40:15.256Z,7.43
2017-10-21T02:42:43.378Z,7.32
2017-10-21T02:45:11.535Z,6.87
2017-10-21T02:47:40.428Z,7.55
2017-10-21T02:50:08.571Z,6.93
2017-10-21T02:52:36.726Z,6.82
2017-10-21T02:55:05.680Z,7.30
2017-10-21T02:57:33.848Z,7.43
2017-10-21T03:00:01.994Z,7.72
2017-10-21T03:02:31.819Z,6.95
2017-10-21T03:05:00.723Z,7.97
2017-10-21T03:07:28.862Z,7.25
2017-10-21T03:09:57.003Z,7.40
2017-10-21T03:12:25.130Z,6.87
2017-10-21T03:14:54.050Z,6.63
2017-10-21T03:17:22.180Z,7.05
2017-10-21T03:19:51.072Z,6.93
2017-10-21T03:22:19.968Z,6.97
2017-10-21T03:24:48.890Z,7.32
2017-10-21T03:27:17.022Z,6.10
2017-10-21T03:29:45.927Z,6.20
2017-10-21T03:32:14.080Z,6.68
2017-10-21T03:34:43.021Z,6.85
2017-10-21T03:37:11.167Z,7.00
2017-10-21T03:39:40.059Z,6.40
2017-10-21T03:42:08.212Z,6.40
2017-10-21T03:44:36.346Z,6.60
2017-10-21T03:47:04.480Z,7.28
2017-10-21T03:49:32.632Z,6.70
2017-10-21T03:52:01.541Z,6.47
2017-10-21T03:54:30.458Z,5.80
2017-10-21T03:56:58.575Z,6.18
2017-10-21T03:59:26.720Z,6.27
2017-10-21T04:01:54.865Z,6.40
2017-10-21T04:04:23.204Z,6.97
2017-10-21T04:06:52.131Z,5.50
2017-10-21T04:09:20.254Z,6.20
2017-10-21T04:11:49.163Z,6.35
2017-10-21T04:14:18.076Z,6.83
2017-10-21T04:16:46.216Z,7.47
2017-10-21T04:19:14.344Z,8.00
2017-10-21T04:21:42.518Z,7.45
2017-10-21T04:24:10.697Z,7.83
2017-10-21T04:26:38.840Z,8.00
2017-10-21T04:29:06.980Z,7.70
2017-10-21T04:31:35.121Z,7.60
2017-10-21T04:34:03.251Z,7.95
2017-10-21T04:36:31.404Z,8.60
2017-10-21T04:39:00.307Z,8.00
2017-10-21T04:41:28.522Z,8.13
2017-10-21T04:43:56.705Z,8.30
2017-10-21T04:46:24.889Z,9.00
2017-10-21T04:48:53.772Z,8.70
2017-10-21T04:51:21.914Z,7.60
2017-10-21T04:53:50.032Z,7.93
2017-10-21T04:56:18.194Z,8.10
2017-10-21T04:58:46.337Z,8.70
2017-10-21T05:01:14.552Z,8.68
2017-10-21T05:03:42.657Z,8.40
2017-10-21T05:06:10.959Z,8.57
2017-10-21T05:08:39.086Z,8.98
2017-10-21T05:11:07.975Z,8.18
2017-10-21T05:13:36.892Z,8.23
2017-10-21T05:16:05.029Z,9.27
2017-10-21T05:18:33.213Z,9.82
2017-10-21T05:21:01.337Z,8.80
2017-10-21T05:23:29.477Z,9.10
2017-10-21T05:25:57.611Z,9.43
2017-10-21T05:28:25.808Z,9.60
2017-10-21T05:30:53.919Z,8.50
2017-10-21T05:33:22.043Z,9.80
2017-10-21T05:35:50.958Z,9.88
2017-10-21T05:38:19.099Z,9.73
2017-10-21T05:40:48.011Z,10.05
2017-10-21T05:43:16.144Z,9.45
2017-10-21T05:45:44.313Z,10.25
2017-10-21T05:48:12.453Z,9.03
2017-10-21T05:50:40.599Z,10.35
2017-10-21T05:53:09.499Z,10.10
2017-10-21T05:55:37.652Z,9.82
2017-10-21T05:58:05.791Z,10.10
2017-10-21T06:00:33.934Z,10.68
2017-10-21T06:03:02.068Z,9.73
2017-10-21T06:05:30.987Z,11.12
2017-10-21T06:07:59.147Z,10.65
2017-10-21T06:10:27.280Z,11.25
2017-10-21T06:12:55.429Z,10.10
2017-10-21T06:15:23.587Z,10.98
2017-10-21T06:17:51.739Z,10.90
2017-10-21T06:20:19.912Z,9.68
2017-10-21T06:22:48.056Z,11.05
2017-10-21T06:25:16.222Z,10.85
2017-10-21T06:27:44.387Z,9.45
2017-10-21T06:30:12.548Z,10.52
2017-10-21T06:32:40.695Z,11.25
2017-10-21T06:35:08.845Z,10.65
2017-10-21T06:37:37.750Z,9.50
2017-10-21T06:40:05.888Z,10.10
2017-10-21T06:42:34.813Z,10.43
2017-10-21T06:45:02.960Z,10.95
2017-10-21T06:47:31.368Z,12.07
2017-10-21T06:49:59.511Z,11.30
2017-10-21T06:52:28.426Z,11.20
2017-10-21T06:54:56.651Z,10.20
2017-10-21T06:57:24.801Z,10.48
2017-10-21T06:59:52.940Z,10.33
2017-10-21T07:02:21.088Z,11.10
2017-10-21T07:04:49.998Z,10.03
2017-10-21T07:07:18.144Z,10.50
2017-10-21T07:09:47.086Z,10.67
2017-10-21T07:12:15.224Z,11.30
2017-10-21T07:14:43.438Z,11.85
2017-10-21T07:17:11.562Z,9.60
2017-10-21T07:19:40.478Z,9.90
2017-10-21T07:22:08.630Z,9.77
2017-10-21T07:24:37.563Z,11.17
2017-10-21T07:27:05.724Z,8.70
2017-10-21T07:29:33.879Z,10.23
2017-10-21T07:32:02.798Z,9.05
2017-10-21T07:34:30.932Z,9.83
2017-10-21T07:36:59.845Z,9.40
2017-10-21T07:39:27.980Z,8.87
2017-10-21T07:41:56.904Z,8.55
2017-10-21T07:44:25.072Z,9.10
2017-10-21T07:46:53.211Z,9.85
2017-10-21T07:49:21.358Z,8.43
2017-10-21T07:51:49.480Z,8.60
2017-10-21T07:54:18.396Z,9.03
2017-10-21T07:56:46.529Z,9.73
2017-10-21T07:59:14.702Z,9.60
2017-10-21T08:01:43.609Z,9.10
2017-10-21T08:04:12.508Z,8.17
2017-10-21T08:06:40.796Z,9.23
2017-10-21T08:09:08.961Z,9.17
2017-10-21T08:11:37.102Z,9.00
2017-10-21T08:14:06.000Z,8.57
2017-10-21T08:16:34.919Z,9.30
2017-10-21T08:19:03.048Z,8.83
2017-10-21T08:21:31.195Z,9.10
2017-10-21T08:23:59.367Z,9.37
2017-10-21T08:26:27.504Z,9.40
2017-10-21T08:28:55.650Z,9.07
2017-10-21T08:31:23.807Z,8.83
2017-10-21T08:33:51.945Z,9.83
2017-10-21T08:36:20.097Z,8.50
2017-10-21T08:38:48.251Z,9.50
2017-10-21T08:41:17.247Z,9.80
2017-10-21T08:43:46.163Z,8.87
2017-10-21T08:46:14.309Z,8.57
2017-10-21T08:48:43.267Z,9.10
2017-10-21T08:51:11.422Z,8.97
2017-10-21T08:53:39.571Z,7.97
2017-10-21T08:56:07.715Z,9.30
2017-10-21T08:58:36.650Z,9.13
2017-10-21T09:01:04.819Z,8.20
2017-10-21T09:03:32.990Z,8.13
2017-10-21T09:06:01.149Z,8.80
2017-10-21T09:08:29.270Z,9.10
2017-10-21T09:10:57.448Z,8.43
2017-10-21T09:13:25.560Z,7.70
2017-10-21T09:15:53.701Z,8.40
2017-10-21T09:18:21.841Z,8.60
2017-10-21T09:20:49.972Z,8.27
2017-10-21T09:23:18.112Z,8.63
2017-10-21T09:25:47.017Z,8.80
2017-10-21T09:28:15.932Z,8.07
2017-10-21T09:30:44.080Z,7.70
2017-10-21T09:33:12.979Z,8.40
2017-10-21T09:35:41.686Z,8.13
2017-10-21T09:38:09.827Z,7.80
2017-10-21T09:40:38.719Z,8.70
2017-10-21T09:43:07.638Z,9.05
2017-10-21T09:45:35.762Z,8.27
2017-10-21T09:48:03.898Z,9.27
2017-10-21T09:50:32.035Z,9.33
2017-10-21T09:53:00.196Z,8.23
2017-10-21T09:55:29.129Z,9.20
2017-10-21T09:57:57.381Z,8.80
2017-10-21T10:00:25.532Z,8.70
2017-10-21T10:02:54.384Z,8.83
2017-10-21T10:05:22.516Z,9.07
2017-10-21T10:07:50.642Z,8.27
2017-10-21T10:10:19.116Z,8.20
2017-10-21T10:12:47.252Z,9.53
2017-10-21T10:15:15.395Z,8.83
2017-10-21T10:17:44.075Z,8.13
2017-10-21T10:20:12.981Z,9.53
2017-10-21T10:22:41.116Z,7.73
2017-10-21T10:25:09.272Z,9.27
2017-10-21T10:27:37.409Z,8.97
2017-10-21T10:30:05.541Z,8.10
2017-10-21T10:32:33.693Z,9.13
2017-10-21T10:35:01.817Z,9.13
2017-10-21T10:37:29.974Z,8.87
2017-10-21T10:39:58.877Z,8.23
2017-10-21T10:42:27.046Z,7.90
2017-10-21T10:44:55.977Z,8.87
2017-10-21T10:47:24.097Z,9.33
2017-10-21T10:49:53.040Z,8.20
2017-10-21T10:52:21.234Z,8.17
2017-10-21T10:54:49.367Z,9.33
2017-10-21T10:57:17.646Z,9.53
2017-10-21T10:59:45.776Z,9.23
2017-10-21T11:02:14.698Z,9.70
2017-10-21T11:04:42.824Z,9.23
2017-10-21T11:07:10.986Z,8.60
2017-10-21T11:09:39.109Z,8.90
2017-10-21T11:12:07.254Z,8.40
2017-10-21T11:14:35.448Z,8.87
2017-10-21T11:17:03.732Z,8.77
2017-10-21T11:19:31.855Z,9.27
2017-10-21T11:22:00.019Z,8.67
2017-10-21T11:24:28.903Z,8.03
2017-10-21T11:26:57.044Z,9.00
2017-10-21T11:29:25.211Z,9.17
2017-10-21T11:31:53.373Z,9.63
2017-10-21T11:34:21.645Z,7.00
2017-10-21T11:36:50.529Z,7.90
2017-10-21T11:39:19.430Z,7.57
2017-10-21T11:41:48.386Z,7.50
2017-10-21T11:44:16.492Z,7.90
2017-10-21T11:46:44.618Z,7.30
2017-10-21T11:49:12.783Z,7.57
2017-10-21T11:51:43.148Z,7.30
2017-10-21T11:54:11.673Z,8.90
2017-10-21T11:56:39.843Z,7.57
2017-10-21T11:59:07.974Z,7.40
2017-10-21T12:01:36.113Z,6.87
2017-10-21T12:04:04.248Z,7.90
2017-10-21T12:06:32.395Z,7.60
2017-10-21T12:09:00.548Z,7.20
2017-10-21T12:11:28.685Z,6.93
2017-10-21T12:13:56.946Z,7.20
2017-10-21T12:16:25.397Z,7.40
2017-10-21T12:18:54.302Z,6.67
2017-10-21T12:21:23.276Z,6.50
2017-10-21T12:23:51.439Z,6.57
2017-10-21T12:26:19.561Z,5.43
2017-10-21T12:28:47.695Z,7.17
2017-10-21T12:31:15.891Z,7.03
2017-10-21T12:33:44.029Z,6.03
2017-10-21T12:36:12.212Z,6.33
2017-10-21T12:38:41.120Z,7.27
2017-10-21T12:41:09.261Z,6.60
2017-10-21T12:43:37.377Z,5.63
2017-10-21T12:46:05.523Z,5.10
2017-10-21T12:48:34.429Z,5.50
2017-10-21T12:51:02.583Z,5.33
2017-10-21T12:53:31.482Z,5.00
2017-10-21T12:56:00.387Z,5.17
2017-10-21T12:58:28.579Z,4.93
2017-10-21T13:00:56.708Z,4.73
2017-10-21T13:03:25.591Z,4.67
2017-10-21T13:05:54.523Z,4.17
2017-10-21T13:08:22.696Z,4.17
2017-10-21T13:10:50.817Z,4.33
2017-10-21T13:13:18.947Z,4.60
2017-10-21T13:15:47.112Z,3.90
2017-10-21T13:18:15.241Z,3.70
2017-10-21T13:20:43.377Z,4.47
2017-10-21T13:23:11.526Z,4.00
2017-10-21T13:25:39.637Z,4.63
2017-10-21T13:28:09.289Z,4.10
2017-10-21T13:30:37.479Z,4.63
2017-10-21T13:33:06.372Z,4.33
2017-10-21T13:35:34.524Z,5.10
2017-10-21T13:38:02.841Z,4.70
2017-10-21T13:40:30.988Z,4.77
2017-10-21T13:42:59.127Z,4.87
2017-10-21T13:45:28.079Z,4.57
2017-10-21T13:47:56.202Z,4.80
2017-10-21T13:50:25.106Z,4.70
2017-10-21T13:52:53.229Z,4.27
2017-10-21T13:55:21.348Z,4.10
2017-10-21T13:57:49.491Z,4.13
2017-10-21T14:00:17.621Z,4.07
2017-10-21T14:02:45.752Z,4.37
2017-10-21T14:05:14.653Z,4.50
2017-10-21T14:07:43.542Z,4.30
2017-10-21T14:10:11.709Z,4.60
2017-10-21T14:12:40.604Z,5.37
2017-10-21T14:15:08.791Z,4.90
2017-10-21T14:17:37.189Z,4.20
2017-10-21T14:22:39.882Z,4.10
2017-10-21T14:25:08.024Z,4.50
2017-10-21T14:27:36.948Z,4.90
2017-10-21T14:30:05.093Z,4.23
2017-10-21T14:32:33.256Z,4.07
2017-10-21T14:35:02.199Z,4.67
2017-10-21T14:37:30.334Z,4.83
2017-10-21T14:39:58.511Z,4.60
2017-10-21T14:42:26.628Z,4.60
2017-10-21T14:44:55.032Z,4.73
2017-10-21T14:47:24.188Z,4.10
2017-10-21T14:49:52.313Z,4.27
2017-10-21T14:52:22.119Z,4.53
2017-10-21T14:54:51.016Z,3.73
2017-10-21T14:57:19.176Z,4.30
2017-10-21T14:59:48.091Z,4.97
2017-10-21T15:02:16.236Z,4.87
2017-10-21T15:04:45.164Z,5.30
2017-10-21T15:07:13.313Z,4.77
2017-10-21T15:09:42.194Z,4.63
2017-10-21T15:12:10.636Z,4.20
2017-10-21T15:14:38.747Z,5.10
2017-10-21T15:17:06.911Z,4.80
2017-10-21T15:19:35.049Z,4.53
2017-10-21T15:22:03.190Z,5.13
2017-10-21T15:24:31.325Z,4.13
2017-10-21T15:27:00.235Z,4.73
2017-10-21T15:29:28.383Z,4.77
2017-10-21T15:31:57.365Z,4.40
2017-10-21T15:34:25.491Z,4.50
2017-10-21T15:36:53.619Z,5.03
2017-10-21T15:39:21.742Z,4.53
2017-10-21T15:41:49.882Z,6.33
2017-10-21T15:44:18.784Z,5.20
2017-10-21T15:46:46.920Z,5.10
2017-10-21T15:49:15.822Z,4.80
2017-10-21T15:51:44.748Z,6.90
2017-10-21T15:54:12.858Z,7.40
2017-10-21T15:56:41.022Z,8.87
2017-10-21T15:59:09.186Z,6.90
2017-10-21T16:01:37.324Z,6.20
2017-10-21T16:04:06.230Z,6.37
2017-10-21T16:06:34.404Z,7.83
2017-10-21T16:09:02.527Z,6.90
2017-10-21T16:11:30.663Z,7.03
2017-10-21T16:13:58.780Z,7.70
2017-10-21T16:16:27.670Z,7.40
2017-10-21T16:18:56.568Z,7.97
2017-10-21T16:21:25.491Z,7.80
2017-10-21T16:23:53.646Z,7.93
2017-10-21T16:26:22.515Z,7.10
2017-10-21T16:28:51.431Z,7.63
2017-10-21T16:31:19.580Z,6.77
2017-10-21T16:33:48.459Z,7.87
2017-10-21T16:36:17.369Z,8.10
2017-10-21T16:38:46.283Z,8.23
2017-10-21T16:41:14.431Z,7.73
2017-10-21T16:43:43.323Z,7.37
2017-10-21T16:46:11.456Z,7.93
2017-10-21T16:48:39.601Z,8.83
2017-10-21T16:51:07.740Z,7.33
2017-10-21T16:53:36.657Z,7.87
2017-10-21T16:56:04.768Z,8.07
2017-10-21T16:58:32.932Z,7.80
2017-10-21T17:01:01.051Z,9.23
2017-10-21T17:03:29.226Z,8.07
2017-10-21T17:05:57.381Z,8.90
2017-10-21T17:08:25.563Z,10.90
2017-10-21T17:10:53.687Z,9.40
2017-10-21T17:13:22.165Z,9.37
2017-10-21T17:15:50.358Z,10.40
2017-10-21T17:18:18.480Z,8.77
2017-10-21T17:20:46.609Z,10.80
2017-10-21T17:23:14.739Z,10.50
2017-10-21T17:25:42.885Z,9.73
2017-10-21T17:28:11.024Z,10.00
2017-10-21T17:30:39.181Z,11.03
2017-10-21T17:33:07.321Z,11.00
2017-10-21T17:35:35.482Z,10.37
2017-10-21T17:38:03.630Z,11.30
2017-10-21T17:40:32.567Z,12.33
2017-10-21T17:43:00.732Z,13.10
2017-10-21T17:45:28.864Z,12.60
2017-10-21T17:47:58.003Z,12.13
2017-10-21T17:50:26.126Z,12.00
2017-10-21T17:52:54.278Z,10.20
2017-10-21T17:55:22.469Z,9.60
2017-10-21T17:57:50.623Z,9.93
2017-10-21T18:00:18.814Z,9.00
2017-10-21T18:02:46.977Z,9.30
2017-10-21T18:05:15.112Z,10.47
2017-10-21T18:07:43.250Z,10.03
2017-10-21T18:10:11.425Z,10.07
2017-10-21T18:12:39.566Z,9.73
2017-10-21T18:15:07.740Z,9.23
2017-10-21T18:17:35.928Z,9.23
2017-10-21T18:20:04.096Z,9.23
2017-10-21T18:22:32.388Z,9.60
2017-10-21T18:25:00.515Z,9.37
2017-10-21T18:27:29.476Z,10.37
2017-10-21T18:29:57.753Z,9.43
2017-10-21T18:32:26.636Z,10.40
2017-10-21T18:34:54.826Z,9.20
2017-10-21T18:37:22.970Z,8.10
2017-10-21T18:39:51.873Z,8.13
2017-10-21T18:42:20.001Z,8.80
2017-10-21T18:44:48.143Z,9.00
2017-10-21T18:47:16.309Z,9.00
2017-10-21T18:49:44.439Z,8.20
2017-10-21T18:52:13.350Z,9.00
2017-10-21T18:54:41.489Z,11.37
2017-10-21T18:57:10.399Z,10.23
2017-10-21T18:59:39.291Z,9.30
2017-10-21T19:02:07.470Z,10.90
2017-10-21T19:04:36.397Z,9.70
2017-10-21T19:07:04.560Z,10.30
2017-10-21T19:09:32.721Z,12.23
2017-10-21T19:12:00.915Z,11.63
2017-10-21T19:14:29.049Z,11.53
2017-10-21T19:16:57.191Z,11.43
2017-10-21T19:19:25.370Z,11.18
2017-10-21T19:21:53.523Z,11.05
2017-10-21T19:24:21.657Z,11.27
2017-10-21T19:26:49.812Z,10.20
2017-10-21T19:29:19.040Z,9.13
2017-10-21T19:31:47.188Z,11.10
2017-10-21T19:34:15.316Z,10.47
2017-10-21T19:36:43.507Z,11.10
2017-10-21T19:39:11.626Z,11.30
2017-10-21T19:41:39.776Z,10.70
2017-10-21T19:44:07.912Z,10.40
2017-10-21T19:46:36.083Z,9.60
2017-10-21T19:49:04.228Z,10.17
2017-10-21T19:51:32.408Z,11.27
2017-10-21T19:54:00.569Z,12.13
2017-10-21T19:56:28.704Z,11.82
2017-10-21T19:58:57.650Z,10.73
2017-10-21T20:01:25.781Z,12.05
2017-10-21T20:03:53.950Z,14.77
2017-10-21T20:06:22.966Z,14.15
2017-10-21T20:08:51.097Z,15.77
2017-10-21T20:11:20.066Z,12.90
2017-10-21T20:13:48.219Z,15.30
2017-10-21T20:16:16.347Z,13.18
2017-10-21T20:18:44.785Z,13.07
2017-10-21T20:21:12.962Z,11.98
2017-10-21T20:23:41.880Z,11.30
2017-10-21T20:26:10.033Z,11.60
2017-10-21T20:28:38.156Z,12.27
2017-10-21T20:31:06.317Z,11.73
2017-10-21T20:33:34.453Z,11.38
2017-10-21T20:36:02.602Z,11.30
2017-10-21T20:38:30.732Z,11.00
2017-10-21T20:40:58.899Z,9.88
2017-10-21T20:43:27.836Z,9.97
2017-10-21T20:45:55.961Z,10.10
2017-10-21T20:48:24.891Z,10.33
2017-10-21T20:50:53.050Z,10.30
2017-10-21T20:53:21.205Z,9.77
2017-10-21T20:55:49.344Z,8.75
2017-10-21T20:58:18.641Z,8.55
2017-10-21T21:00:46.940Z,7.90
2017-10-21T21:03:15.170Z,7.43
2017-10-21T21:05:43.427Z,8.65
2017-10-21T21:08:11.574Z,8.57
2017-10-21T21:10:39.710Z,7.87
2017-10-21T21:13:08.060Z,7.20
2017-10-21T21:15:36.217Z,8.70
2017-10-21T21:18:04.338Z,10.63
2017-10-21T21:20:33.263Z,11.20
2017-10-21T21:23:01.569Z,11.85
2017-10-21T21:25:29.708Z,11.10
2017-10-21T21:27:58.156Z,6.43
2017-10-21T21:30:26.285Z,3.45
2017-10-21T21:32:54.414Z,3.17
2017-10-21T21:35:23.375Z,2.05
2017-10-21T21:37:51.509Z,2.00
2017-10-21T21:40:19.908Z,2.17
2017-10-21T21:42:48.124Z,1.70
2017-10-21T21:45:17.024Z,1.50
2017-10-21T21:47:46.024Z,1.37
2017-10-21T21:50:14.154Z,0.90
2017-10-21T21:52:42.295Z,1.10
2017-10-21T21:55:10.415Z,0.98
2017-10-21T21:57:38.579Z,1.37
2017-10-21T22:00:06.709Z,0.90
2017-10-21T22:02:34.827Z,1.55
2017-10-21T22:05:02.992Z,1.20
2017-10-21T22:07:31.130Z,0.90
2017-10-21T22:09:59.403Z,1.12
2017-10-21T22:12:27.674Z,0.90
2017-10-21T22:14:55.811Z,1.10
2017-10-21T22:17:23.924Z,0.90
2017-10-21T22:19:52.072Z,1.13
2017-10-21T22:22:20.204Z,1.00
2017-10-21T22:24:48.323Z,1.13
2017-10-21T22:27:16.445Z,0.70
2017-10-21T22:29:44.579Z,1.00
2017-10-21T22:32:12.736Z,1.27
2017-10-21T22:34:40.870Z,1.77
2017-10-21T22:37:09.031Z,0.93
2017-10-21T22:39:37.176Z,1.13
2017-10-21T22:42:05.296Z,0.90
2017-10-21T22:44:33.430Z,1.47
2017-10-21T22:47:01.557Z,1.62
2017-10-21T22:49:30.459Z,1.27
2017-10-21T22:51:58.683Z,1.00
2017-10-21T22:54:26.801Z,1.13
2017-10-21T22:56:54.935Z,1.70
2017-10-21T22:59:23.128Z,0.93
2017-10-21T23:01:52.024Z,1.12
2017-10-21T23:04:20.907Z,0.90
2017-10-21T23:06:49.810Z,1.20
2017-10-21T23:09:18.747Z,2.30
2017-10-21T23:11:46.897Z,1.35
2017-10-21T23:14:15.031Z,1.20
2017-10-21T23:16:43.925Z,1.00
2017-10-21T23:19:12.822Z,1.00
2017-10-21T23:21:41.756Z,1.02
2017-10-21T23:24:09.919Z,1.07
2017-10-21T23:26:38.012Z,0.88
2017-10-21T23:29:06.132Z,1.13
2017-10-21T23:31:35.025Z,1.20
2017-10-21T23:34:03.919Z,1.40
2017-10-21T23:36:32.076Z,1.30
2017-10-21T23:39:00.218Z,1.20
2017-10-21T23:41:28.349Z,1.30
2017-10-21T23:43:56.500Z,1.43
2017-10-21T23:46:25.409Z,1.15
2017-10-21T23:48:53.539Z,1.90
2017-10-21T23:51:21.677Z,1.25
2017-10-21T23:53:49.897Z,1.20
2017-10-21T23:56:18.017Z,1.10
2017-10-21T23:58:46.131Z,1.10
